Time;durP1;ratioP1;P1;durP2;ratioP2;P2;SDS_P1;SDS_P2;PMS_P1;PMS_P2;Temp;Humidity;BMP_temperature;BMP_pressure;BME280_temperature;BME280_humidity;BME280_pressure;Samples;Min_cycle;Max_cycle;Signal;HPM_P1;HPM_P2
2021/12/08 00:00:28;;;;;;;2.70;1.63;;;;;;;20.29;40.71;99443.56;5036312;28;20041;-65
2021/12/08 00:02:55;;;;;;;4.43;1.73;;;;;;;20.19;40.75;99432.66;5035578;28;20506;-65
2021/12/08 00:05:22;;;;;;;3.08;2.10;;;;;;;20.15;40.86;99419.06;5036907;28;20045;-65
2021/12/08 00:07:49;;;;;;;2.15;1.73;;;;;;;20.06;40.96;99407.13;5032729;28;20041;-65
2021/12/08 00:13:03;;;;;;;3.30;1.80;;;;;;;19.96;41.06;99384.88;5033358;28;20041;-65
2021/12/08 00:15:34;;;;;;;3.15;1.73;;;;;;;19.84;41.38;99369.72;5038154;28;20041;-66
2021/12/08 00:18:01;;;;;;;2.55;1.50;;;;;;;19.77;41.53;99368.97;5031105;28;20051;-66
2021/12/08 00:20:30;;;;;;;2.22;1.67;;;;;;;19.73;41.45;99362.47;5037983;28;20043;-66
2021/12/08 00:22:56;;;;;;;3.27;1.73;;;;;;;19.69;41.49;99353.34;5032986;28;20513;-65
2021/12/08 00:25:22;;;;;;;1.75;1.60;;;;;;;19.59;41.57;99356.47;5034254;28;20040;-66
2021/12/08 00:27:47;;;;;;;2.83;1.80;;;;;;;19.55;41.70;99357.09;5035430;28;20643;-66
2021/12/08 00:30:13;;;;;;;1.70;1.52;;;;;;;19.50;41.82;99365.63;5030983;28;20426;-65
2021/12/08 00:32:39;;;;;;;2.13;1.60;;;;;;;19.40;42.10;99360.03;5033752;28;20514;-65
2021/12/08 00:35:06;;;;;;;2.08;1.88;;;;;;;19.41;42.03;99355.56;5035638;28;20041;-65
2021/12/08 00:37:31;;;;;;;4.35;1.80;;;;;;;19.33;42.05;99338.13;5034178;28;20037;-67
2021/12/08 00:39:58;;;;;;;3.38;1.63;;;;;;;19.31;42.04;99343.63;5032986;28;20743;-66
2021/12/08 00:42:24;;;;;;;1.92;1.80;;;;;;;19.26;42.09;99334.72;5032423;28;20029;-67
2021/12/08 00:44:49;;;;;;;1.85;1.60;;;;;;;19.17;42.30;99334.16;5028828;28;20033;-67
2021/12/08 00:47:15;;;;;;;3.13;1.77;;;;;;;19.15;42.34;99336.19;5033341;28;20749;-67
2021/12/08 00:49:41;;;;;;;2.60;1.80;;;;;;;19.10;42.47;99330.75;5032053;28;20387;-66
2021/12/08 00:52:08;;;;;;;1.95;1.63;;;;;;;19.02;42.81;99323.06;5037618;28;20171;-67
2021/12/08 00:54:33;;;;;;;1.92;1.60;;;;;;;19.04;42.49;99326.31;5033214;28;20029;-67
2021/12/08 00:57:00;;;;;;;2.65;1.70;;;;;;;19.02;42.59;99323.06;5038771;28;20482;-66
2021/12/08 00:59:25;;;;;;;2.55;1.85;;;;;;;18.98;42.58;99329.78;5036727;28;20040;-67
2021/12/08 01:01:51;;;;;;;2.75;1.88;;;;;;;18.92;42.54;99335.91;5034144;28;20395;-67
2021/12/08 01:04:17;;;;;;;3.80;1.77;;;;;;;18.86;42.51;99337.56;5032157;28;20698;-67
2021/12/08 01:06:43;;;;;;;2.50;1.83;;;;;;;18.87;42.61;99336.53;5038558;28;20123;-67
2021/12/08 01:09:12;;;;;;;1.90;1.70;;;;;;;18.84;42.53;99333.47;5035739;28;20296;-67
2021/12/08 01:11:38;;;;;;;3.45;1.70;;;;;;;18.81;42.48;99318.88;5032350;28;20040;-67
2021/12/08 01:14:05;;;;;;;3.65;1.80;;;;;;;18.79;42.67;99320.13;5031755;28;20033;-67
2021/12/08 01:16:31;;;;;;;2.08;1.88;;;;;;;18.74;42.77;99317.31;5033110;28;20511;-67
2021/12/08 01:18:57;;;;;;;2.60;1.83;;;;;;;18.76;42.65;99304.72;5035804;28;20036;-67
2021/12/08 01:21:23;;;;;;;3.67;1.85;;;;;;;18.70;42.70;99316.91;5046096;28;20036;-66
2021/12/08 01:23:49;;;;;;;2.55;1.80;;;;;;;18.73;42.84;99315.69;5036109;28;20072;-66
2021/12/08 01:26:14;;;;;;;3.28;1.67;;;;;;;18.69;42.79;99320.56;5035616;28;20387;-67
2021/12/08 01:28:40;;;;;;;2.78;1.80;;;;;;;18.61;43.22;99316.28;5033419;28;20512;-67
2021/12/08 01:31:06;;;;;;;2.80;1.88;;;;;;;18.61;43.21;99312.84;5036207;28;20661;-66
2021/12/08 01:33:34;;;;;;;2.47;1.45;;;;;;;18.58;42.97;99311.44;5036724;28;20077;-67
2021/12/08 01:36:02;;;;;;;2.50;1.70;;;;;;;18.55;42.91;99311.88;5034156;28;20801;-67
2021/12/08 01:38:28;;;;;;;2.30;1.77;;;;;;;18.54;42.95;99310.25;5036496;28;20048;-67
2021/12/08 01:40:54;;;;;;;4.38;1.92;;;;;;;18.50;43.06;99300.34;5032498;28;20043;-67
2021/12/08 01:43:26;;;;;;;2.35;1.50;;;;;;;18.51;43.01;99304.59;5035572;28;20037;-67
2021/12/08 01:46:01;;;;;;;1.75;1.63;;;;;;;18.46;43.01;99294.63;5034248;28;20465;-67
2021/12/08 01:48:31;;;;;;;1.83;1.50;;;;;;;18.41;43.23;99287.38;5038082;28;20490;-66
2021/12/08 01:51:01;;;;;;;2.45;1.80;;;;;;;18.43;42.92;99276.63;5024345;28;20525;-67
2021/12/08 01:53:27;;;;;;;3.75;1.80;;;;;;;18.38;43.02;99285.16;5032809;28;20033;-67
2021/12/08 01:55:53;;;;;;;3.72;2.05;;;;;;;18.38;43.15;99290.41;5036410;28;20043;-67
2021/12/08 01:58:19;;;;;;;1.92;1.50;;;;;;;18.36;43.14;99287.19;5032787;28;20040;-67
2021/12/08 02:00:50;;;;;;;3.05;1.73;;;;;;;18.39;43.19;99294.66;5048140;28;20106;-67
2021/12/08 02:03:22;;;;;;;1.65;1.55;;;;;;;18.34;43.28;99298.94;5029765;28;20316;-67
2021/12/08 02:05:48;;;;;;;1.85;1.73;;;;;;;18.29;43.28;99301.38;5031204;28;20095;-66
2021/12/08 02:08:14;;;;;;;2.00;1.40;;;;;;;18.31;43.04;99299.34;5031825;28;20114;-66
2021/12/08 02:10:41;;;;;;;3.17;1.80;;;;;;;18.28;43.15;99297.13;5031590;28;20474;-66
2021/12/08 02:13:07;;;;;;;2.05;1.60;;;;;;;18.27;43.15;99277.88;5034667;28;20037;-66
2021/12/08 02:15:35;;;;;;;2.33;1.30;;;;;;;18.22;43.17;99287.41;5029859;28;20095;-67
2021/12/08 02:18:01;;;;;;;2.80;1.40;;;;;;;18.23;43.17;99291.66;5035129;28;20041;-67
2021/12/08 02:20:29;;;;;;;1.88;1.60;;;;;;;18.30;43.10;99289.81;5045921;28;20088;-67
2021/12/08 02:22:55;;;;;;;2.38;1.50;;;;;;;18.24;43.25;99277.47;5051546;28;20177;-67
2021/12/08 02:25:23;;;;;;;2.28;1.40;;;;;;;18.27;43.17;99277.06;5032338;28;20037;-66
2021/12/08 02:27:50;;;;;;;2.13;1.60;;;;;;;18.20;43.18;99277.09;5035501;28;20028;-67
2021/12/08 02:49:06;;;;;;;2.35;1.30;;;;;;;18.04;43.28;99248.53;5039228;28;20490;-67
2021/12/08 02:51:33;;;;;;;1.65;1.38;;;;;;;18.01;43.29;99265.56;5040415;28;20032;-67
2021/12/08 02:53:59;;;;;;;1.60;1.35;;;;;;;18.03;43.44;99258.28;5022363;28;20418;-67
2021/12/08 02:56:26;;;;;;;1.85;1.55;;;;;;;18.00;43.31;99255.25;5044558;28;20056;-67
2021/12/08 02:58:51;;;;;;;1.38;1.20;;;;;;;17.96;43.30;99254.03;5036718;28;20032;-67
2021/12/08 03:01:18;;;;;;;1.25;1.15;;;;;;;17.96;43.48;99262.75;5050848;28;20092;-67
2021/12/08 03:03:43;;;;;;;1.52;1.42;;;;;;;17.96;43.42;99261.94;5037881;28;20495;-67
2021/12/08 03:06:12;;;;;;;1.63;1.30;;;;;;;17.96;43.37;99265.38;5055079;28;20107;-67
2021/12/08 03:08:37;;;;;;;1.83;1.65;;;;;;;17.97;43.35;99266.19;5031775;28;20033;-66
2021/12/08 03:11:03;;;;;;;1.52;1.40;;;;;;;17.93;43.40;99263.13;5034554;28;20051;-67
2021/12/08 03:13:43;;;;;;;2.40;1.50;;;;;;;17.88;43.44;99247.16;5047701;28;20052;-67
2021/12/08 03:16:13;;;;;;;1.60;1.50;;;;;;;17.90;43.38;99257.47;5037048;28;20157;-66
2021/12/08 03:18:39;;;;;;;;;;;;;;;17.89;43.55;99266.38;5038616;28;20048;-67
2021/12/08 03:21:07;;;;;;;1.60;1.40;;;;;;;17.86;43.20;99261.53;5038341;28;20377;-66
2021/12/08 03:24:06;;;;;;;1.45;1.10;;;;;;;17.85;43.53;99263.34;5037820;28;20481;-66
2021/12/08 03:26:29;;;;;;;;;;;;;;;17.84;43.59;99266.19;5038511;28;20537;-66
2021/12/08 03:29:14;;;;;;;2.00;1.40;;;;;;;17.87;43.43;99266.59;5022493;28;19927;-67
2021/12/08 03:31:43;;;;;;;1.92;1.35;;;;;;;17.83;43.36;99268.03;5039670;28;20060;-67
2021/12/08 03:34:09;;;;;;;2.15;1.50;;;;;;;17.76;43.58;99270.63;5036939;28;20051;-67
2021/12/08 03:36:34;;;;;;;3.03;1.63;;;;;;;17.74;43.67;99264.78;5036715;28;20041;-67
2021/12/08 03:39:01;;;;;;;2.38;1.40;;;;;;;17.76;43.59;99275.09;5035366;28;20079;-67
2021/12/08 03:41:31;;;;;;;1.75;1.42;;;;;;;17.72;43.68;99271.25;5038790;28;20120;-67
2021/12/08 03:43:57;;;;;;;2.75;1.48;;;;;;;17.74;43.53;99274.50;5033991;28;20037;-67
2021/12/08 03:46:26;;;;;;;2.55;1.40;;;;;;;17.74;43.38;99280.56;5035545;28;20040;-67
2021/12/08 03:48:53;;;;;;;1.67;1.47;;;;;;;17.71;43.43;99273.09;5038001;28;20047;-67
2021/12/08 03:51:19;;;;;;;1.58;1.48;;;;;;;17.75;43.45;99276.13;5033429;28;20045;-66
2021/12/08 03:53:46;;;;;;;1.88;1.48;;;;;;;17.71;43.40;99274.91;5033567;28;20066;-67
2021/12/08 03:56:12;;;;;;;2.63;1.60;;;;;;;17.70;43.51;99275.91;5037323;28;20069;-66
2021/12/08 03:58:38;;;;;;;1.58;1.48;;;;;;;17.68;43.41;99273.50;5035259;28;20091;-66
2021/12/08 04:01:05;;;;;;;2.28;1.45;;;;;;;17.64;43.48;99274.88;5035834;28;20550;-66
2021/12/08 04:03:33;;;;;;;1.42;1.25;;;;;;;17.58;43.51;99273.03;5034230;28;20053;-66
2021/12/08 04:06:07;;;;;;;1.63;1.40;;;;;;;17.66;43.32;99291.28;5028509;28;20049;-66
2021/12/08 04:08:44;;;;;;;1.77;1.40;;;;;;;17.62;43.64;99299.78;5053459;28;20049;-67
2021/12/08 04:11:12;;;;;;;1.48;1.35;;;;;;;17.57;43.56;99284.59;5040535;28;20422;-66
2021/12/08 04:14:04;;;;;;;1.63;1.40;;;;;;;17.57;43.55;99297.75;5033838;28;20044;-67
2021/12/08 04:16:37;;;;;;;2.83;1.40;;;;;;;17.69;43.56;99298.81;5033891;28;20067;-67
2021/12/08 04:19:04;;;;;;;1.92;1.50;;;;;;;17.69;43.45;99306.69;5050699;28;20037;-67
2021/12/08 04:21:32;;;;;;;2.33;1.67;;;;;;;17.78;43.14;99307.31;5034308;28;20041;-67
2021/12/08 04:23:57;;;;;;;1.73;1.45;;;;;;;17.85;42.88;99305.50;5051821;28;20056;-67
2021/12/08 04:26:31;;;;;;;1.90;1.30;;;;;;;17.92;42.84;99300.22;5036535;28;20261;-66
2021/12/08 04:28:57;;;;;;;1.95;1.50;;;;;;;18.03;42.78;99310.13;5035239;28;20043;-67
2021/12/08 04:31:28;;;;;;;1.35;1.25;;;;;;;18.13;42.60;99307.88;5037303;28;20354;-67
2021/12/08 04:34:00;;;;;;;3.33;1.60;;;;;;;18.24;42.63;99311.72;5035011;28;20033;-68
2021/12/08 04:36:32;;;;;;;1.33;1.23;;;;;;;18.37;42.48;99301.16;5037113;28;20041;-67
2021/12/08 04:39:02;;;;;;;2.08;1.13;;;;;;;18.47;42.28;99301.53;5034245;28;20088;-68
2021/12/08 04:41:38;;;;;;;2.08;1.33;;;;;;;18.57;42.18;99315.09;5036893;28;20025;-67
2021/12/08 04:46:56;;;;;;;2.63;1.25;;;;;;;18.75;41.99;99318.94;5033719;28;20191;-67
2021/12/08 04:52:14;;;;;;;1.48;1.27;;;;;;;18.85;42.08;99319.28;5035882;28;20039;-67
2021/12/08 05:06:03;;;;;;;1.60;1.30;;;;;;;19.11;41.83;99316.53;5036558;28;20413;-67
2021/12/08 05:08:40;;;;;;;1.30;1.20;;;;;;;19.14;41.92;99321.38;5034547;28;20052;-67
2021/12/08 05:11:19;;;;;;;2.25;1.27;;;;;;;19.16;41.91;99318.53;5036112;28;20035;-67
2021/12/08 05:13:49;;;;;;;1.90;1.37;;;;;;;19.16;41.91;99316.69;5039135;28;20052;-67
2021/12/08 05:16:17;;;;;;;2.10;1.38;;;;;;;19.17;41.94;99328.06;5051541;28;20451;-67
2021/12/08 05:18:45;;;;;;;1.95;1.35;;;;;;;19.14;41.73;99326.66;5032339;28;20032;-67
2021/12/08 05:21:26;;;;;;;1.65;1.50;;;;;;;19.19;41.68;99332.09;5052400;28;20232;-66
2021/12/08 05:24:03;;;;;;;2.15;1.45;;;;;;;19.20;41.73;99330.28;5032094;28;20095;-66
2021/12/08 05:26:35;;;;;;;2.00;1.27;;;;;;;19.21;41.49;99340.66;5051314;28;20044;-67
2021/12/08 05:29:09;;;;;;;1.65;1.15;;;;;;;19.17;41.73;99330.69;5033082;28;20268;-67
2021/12/08 05:31:36;;;;;;;1.73;1.33;;;;;;;19.19;41.71;99328.66;5032489;28;20037;-67
2021/12/08 05:34:02;;;;;;;1.42;1.08;;;;;;;19.24;41.70;99336.75;5034817;28;20524;-67
2021/12/08 05:36:28;;;;;;;1.33;1.23;;;;;;;19.26;41.72;99354.00;5036343;28;20128;-67
2021/12/08 05:38:56;;;;;;;1.20;1.10;;;;;;;19.28;41.47;99340.59;5037951;28;20129;-66
2021/12/08 05:41:27;;;;;;;1.23;1.10;;;;;;;19.30;41.70;99346.47;5036567;28;20041;-67
2021/12/08 05:43:54;;;;;;;0.98;0.98;;;;;;;19.31;41.52;99342.81;5033930;28;20044;-67
2021/12/08 05:46:22;;;;;;;2.47;1.25;;;;;;;19.28;41.63;99336.13;5034921;28;20025;-67
2021/12/08 05:48:49;;;;;;;1.27;1.00;;;;;;;19.38;41.46;99353.31;5037666;28;20037;-66
2021/12/08 05:51:28;;;;;;;1.52;1.17;;;;;;;19.43;41.43;99356.16;5036611;28;20047;-67
2021/12/08 05:53:58;;;;;;;1.70;1.30;;;;;;;19.44;41.46;99349.84;5034831;28;20514;-66
2021/12/08 05:56:24;;;;;;;;;;;;;;;19.44;41.48;99357.75;5031432;28;20041;-67
2021/12/08 05:58:51;;;;;;;1.45;1.27;;;;;;;19.43;41.35;99372.78;5030146;28;19971;-67
2021/12/08 06:01:29;;;;;;;1.35;1.10;;;;;;;19.45;41.43;99373.41;5032075;28;20075;-67
2021/12/08 06:03:56;;;;;;;2.05;1.80;;;;;;;19.50;41.43;99370.09;5036201;28;20057;-67
2021/12/08 06:06:22;;;;;;;1.35;1.10;;;;;;;19.50;41.26;99367.47;5049097;28;20052;-67
2021/12/08 06:08:51;;;;;;;3.90;1.23;;;;;;;19.50;41.43;99365.63;5031646;28;20055;-67
2021/12/08 06:11:17;;;;;;;1.20;1.10;;;;;;;19.50;41.43;99364.81;5035984;28;20439;-67
2021/12/08 06:13:45;;;;;;;1.15;0.95;;;;;;;19.47;41.36;99368.72;5032010;28;20048;-66
2021/12/08 06:16:13;;;;;;;2.22;1.48;;;;;;;19.46;41.54;99377.66;5035009;28;20040;-67
2021/12/08 06:18:40;;;;;;;1.25;1.15;;;;;;;19.43;41.40;99383.34;5035581;28;20577;-66
2021/12/08 06:21:12;;;;;;;1.08;1.08;;;;;;;19.44;41.34;99381.53;5020069;28;20034;-67
2021/12/08 06:23:39;;;;;;;1.60;1.20;;;;;;;19.46;41.47;99382.13;5036562;28;20036;-67
2021/12/08 06:26:06;;;;;;;1.15;1.05;;;;;;;19.40;41.47;99382.97;5048674;28;20037;-67
2021/12/08 06:28:32;;;;;;;1.00;0.90;;;;;;;19.39;41.49;99370.78;5032921;28;20116;-67
2021/12/08 06:30:58;;;;;;;1.33;1.10;;;;;;;19.40;41.30;99390.91;5029773;28;20033;-67
2021/12/08 06:33:23;;;;;;;1.58;1.00;;;;;;;19.37;41.57;99389.47;5031231;28;20040;-67
2021/12/08 06:35:56;;;;;;;1.45;1.10;;;;;;;19.42;41.39;99394.94;5038473;28;20087;-67
2021/12/08 06:38:24;;;;;;;1.38;1.10;;;;;;;19.46;41.25;99403.25;5033497;28;20082;-67
2021/12/08 06:40:53;;;;;;;1.27;0.98;;;;;;;19.50;41.34;99397.31;5035755;28;20029;-66
2021/12/08 06:43:24;;;;;;;1.83;1.45;;;;;;;19.58;41.12;99393.66;5033798;28;20036;-67
2021/12/08 06:45:54;;;;;;;1.40;1.00;;;;;;;19.62;41.11;99402.78;5034854;28;20032;-66
2021/12/08 06:48:28;;;;;;;0.85;0.82;;;;;;;19.67;41.18;99405.59;5037352;28;20048;-67
2021/12/08 06:51:11;;;;;;;1.27;1.15;;;;;;;19.71;41.17;99398.03;5033969;28;20303;-67
2021/12/08 06:53:38;;;;;;;2.15;1.27;;;;;;;19.72;41.02;99403.09;5035856;28;20577;-67
2021/12/08 06:56:10;;;;;;;1.38;1.20;;;;;;;19.76;41.00;99401.69;5032033;28;20044;-67
2021/12/08 06:58:39;;;;;;;1.27;0.90;;;;;;;19.71;40.96;99401.47;5032895;28;20033;-67
2021/12/08 07:06:45;;;;;;;1.27;1.17;;;;;;;19.73;41.04;99419.75;5030522;28;20251;-67
2021/12/08 07:09:16;;;;;;;1.20;1.10;;;;;;;19.72;41.02;99418.94;5035293;28;20036;-67
2021/12/08 07:11:42;;;;;;;1.98;1.17;;;;;;;19.67;41.26;99421.44;5035456;28;20064;-67
2021/12/08 07:14:08;;;;;;;1.02;0.90;;;;;;;19.65;41.00;99410.28;5033776;28;20555;-66
2021/12/08 07:16:39;;;;;;;1.13;0.93;;;;;;;19.65;41.34;99422.66;5032452;28;20037;-67
2021/12/08 07:19:11;;;;;;;1.27;1.00;;;;;;;19.63;41.33;99422.88;5034849;28;20155;-67
2021/12/08 07:21:46;;;;;;;0.90;0.90;;;;;;;19.62;41.02;99442.38;5038733;28;20041;-67
2021/12/08 07:24:22;;;;;;;1.60;1.30;;;;;;;19.60;41.32;99439.16;5035340;28;20128;-66
2021/12/08 07:26:51;;;;;;;2.42;1.35;;;;;;;19.58;41.27;99443.84;5050836;28;20077;-67
2021/12/08 07:29:23;;;;;;;1.33;1.20;;;;;;;19.58;41.31;99446.47;5035712;28;20033;-67
2021/12/08 07:31:59;;;;;;;1.40;1.20;;;;;;;19.61;41.25;99451.34;5036309;28;20486;-67
2021/12/08 07:34:25;;;;;;;1.10;1.00;;;;;;;19.60;41.16;99461.09;5031456;28;20460;-67
2021/12/08 07:37:04;;;;;;;2.20;1.38;;;;;;;19.62;41.28;99463.50;5048398;28;20040;-66
2021/12/08 07:39:33;;;;;;;1.60;1.20;;;;;;;19.69;41.07;99469.56;5032318;28;20507;-67
2021/12/08 07:42:06;;;;;;;0.90;0.90;;;;;;;19.71;41.03;99474.63;5032243;28;22039;-67
2021/12/08 07:44:32;;;;;;;2.05;1.00;;;;;;;19.71;41.08;99478.06;5030799;28;20075;-67
2021/12/08 07:47:03;;;;;;;1.23;1.00;;;;;;;19.72;40.98;99474.41;5036653;28;20135;-66
2021/12/08 07:49:39;;;;;;;1.48;1.08;;;;;;;19.75;40.95;99470.53;5017302;28;20392;-67
2021/12/08 07:52:10;;;;;;;1.20;1.10;;;;;;;19.78;41.01;99463.03;5036906;28;20041;-66
2021/12/08 07:54:36;;;;;;;1.05;0.95;;;;;;;19.78;41.09;99476.22;5038391;28;20040;-67
2021/12/08 07:57:07;;;;;;;1.33;1.20;;;;;;;19.81;40.98;99461.78;5039008;28;20070;-67
2021/12/08 07:59:36;;;;;;;1.73;1.10;;;;;;;19.80;41.04;99468.91;5035131;28;20041;-67
2021/12/08 08:02:07;;;;;;;1.27;1.00;;;;;;;19.80;41.05;99474.19;5037456;28;20164;-67
2021/12/08 08:04:35;;;;;;;2.85;1.23;;;;;;;19.78;41.03;99486.78;5035508;28;20457;-67
2021/12/08 08:07:03;;;;;;;1.17;0.90;;;;;;;19.76;41.08;99485.38;5035420;28;20132;-67
2021/12/08 08:09:35;;;;;;;1.10;1.00;;;;;;;19.74;41.21;99498.78;5036652;28;20091;-67
2021/12/08 08:12:03;;;;;;;1.58;0.90;;;;;;;19.74;41.04;99498.78;5030946;28;20116;-68
2021/12/08 08:14:37;;;;;;;1.25;1.15;;;;;;;19.72;41.16;99502.66;5048293;28;20071;-67
2021/12/08 08:17:05;;;;;;;1.58;1.05;;;;;;;19.69;41.13;99503.88;5033577;28;20565;-67
2021/12/08 08:19:31;;;;;;;0.90;0.75;;;;;;;19.71;41.07;99508.97;5052383;28;20114;-67
2021/12/08 08:22:08;;;;;;;2.55;1.50;;;;;;;19.69;41.09;99509.16;5036270;28;20467;-67
2021/12/08 08:24:34;;;;;;;2.05;1.58;;;;;;;19.65;40.97;99507.16;5032576;28;20064;-67
2021/12/08 08:27:03;;;;;;;1.38;1.05;;;;;;;19.68;40.97;99502.28;5037006;28;20387;-67
2021/12/08 08:29:29;;;;;;;1.52;1.13;;;;;;;19.65;40.99;99491.31;5038285;28;20053;-67
2021/12/08 08:32:03;;;;;;;1.45;1.20;;;;;;;19.64;41.03;99497.63;5037521;28;20144;-67
2021/12/08 08:34:37;;;;;;;1.30;0.88;;;;;;;19.66;40.96;99500.88;5037116;28;20091;-67
2021/12/08 08:37:08;;;;;;;1.35;1.13;;;;;;;19.63;41.15;99506.56;5038095;28;20083;-67
2021/12/08 08:39:37;;;;;;;1.80;1.25;;;;;;;19.60;41.08;99505.97;5035165;28;20048;-67
2021/12/08 08:42:08;;;;;;;1.40;0.95;;;;;;;19.61;41.05;99507.59;5036500;28;20021;-66
2021/12/08 08:44:42;;;;;;;1.02;1.02;;;;;;;19.64;41.22;99505.56;5037657;28;20125;-67
2021/12/08 08:47:13;;;;;;;2.63;1.17;;;;;;;19.67;41.04;99503.28;5052998;28;20101;-67
2021/12/08 08:49:40;;;;;;;1.70;1.02;;;;;;;19.71;41.05;99508.97;5037877;28;20143;-67
2021/12/08 08:52:06;;;;;;;1.10;1.00;;;;;;;19.77;40.89;99514.22;5055237;28;20065;-67
2021/12/08 08:54:37;;;;;;;1.90;1.38;;;;;;;19.80;40.88;99521.72;5040793;28;20041;-67
2021/12/08 08:57:17;;;;;;;1.42;1.13;;;;;;;19.82;40.95;99529.44;5040468;28;20029;-67
2021/12/08 08:59:51;;;;;;;3.40;1.17;;;;;;;19.83;40.90;99520.50;5042272;28;20067;-67
2021/12/08 09:02:26;;;;;;;2.17;1.40;;;;;;;19.84;40.91;99530.84;5035811;28;20061;-67
2021/12/08 09:04:56;;;;;;;1.63;1.13;;;;;;;19.84;40.72;99530.03;5038364;28;20119;-67
2021/12/08 09:07:23;;;;;;;;;;;;;;;19.87;40.86;99537.53;5042021;28;20360;-68
2021/12/08 09:09:52;;;;;;;2.22;1.10;;;;;;;19.85;40.87;99543.03;5040932;28;19965;-67
2021/12/08 09:12:33;;;;;;;1.00;0.90;;;;;;;19.84;41.10;99544.06;5039309;28;20029;-67
2021/12/08 09:15:11;;;;;;;2.13;1.10;;;;;;;19.80;40.82;99544.69;5041867;28;20028;-67
2021/12/08 09:17:47;;;;;;;1.77;1.17;;;;;;;19.85;40.80;99544.88;5033948;28;20057;-67
2021/12/08 09:20:28;;;;;;;2.05;1.27;;;;;;;19.79;40.87;99538.59;5040520;28;20433;-66
2021/12/08 09:23:02;;;;;;;1.30;1.20;;;;;;;19.79;41.02;99543.06;5038796;28;20075;-67
2021/12/08 09:25:49;;;;;;;2.70;0.93;;;;;;;19.78;40.99;99539.63;5035060;28;20198;-66
2021/12/08 09:28:44;;;;;;;1.45;1.00;;;;;;;19.74;40.95;99534.94;5035664;28;20035;-67
2021/12/08 09:31:37;;;;;;;2.08;1.17;;;;;;;19.72;40.96;99544.91;5025689;28;20049;-66
2021/12/08 09:34:10;;;;;;;3.20;1.23;;;;;;;19.68;40.89;99543.72;5033875;28;20037;-67
2021/12/08 09:36:45;;;;;;;1.20;1.08;;;;;;;19.65;41.16;99560.00;5036197;28;20041;-66
2021/12/08 09:39:21;;;;;;;1.23;1.13;;;;;;;19.65;41.10;99552.06;5038034;28;20051;-67
2021/12/08 09:41:53;;;;;;;2.50;1.23;;;;;;;19.65;41.07;99566.09;5018297;28;20046;-66
2021/12/08 09:44:24;;;;;;;1.60;1.10;;;;;;;19.73;41.35;99572.94;5008083;28;20192;-67
2021/12/08 09:46:51;;;;;;;2.40;1.10;;;;;;;19.91;41.32;99586.28;5035536;28;20036;-68
2021/12/08 09:49:24;;;;;;;2.15;1.00;;;;;;;20.05;40.89;99601.06;5034433;28;20059;-67
2021/12/08 09:51:52;;;;;;;1.25;1.15;;;;;;;20.15;40.93;99596.16;5033001;28;20135;-67
2021/12/08 09:54:18;;;;;;;1.73;1.40;;;;;;;20.19;41.16;99601.81;5036788;28;20036;-69
2021/12/08 09:56:45;;;;;;;2.00;1.33;;;;;;;20.16;41.21;99596.97;5032917;28;20052;-67
2021/12/08 09:59:11;;;;;;;1.98;1.17;;;;;;;20.13;41.38;99602.66;5015528;28;20485;-66
2021/12/08 10:01:41;;;;;;;2.63;0.82;;;;;;;20.16;41.22;99616.28;5017071;28;20069;-67
2021/12/08 10:04:07;;;;;;;3.33;1.25;;;;;;;20.18;41.06;99610.78;5036204;28;20053;-67
2021/12/08 10:06:34;;;;;;;2.35;1.02;;;;;;;20.22;40.97;99617.25;5008117;28;20040;-67
2021/12/08 10:09:00;;;;;;;1.60;1.10;;;;;;;20.20;40.79;99600.78;5034086;28;20031;-67
2021/12/08 10:11:29;;;;;;;1.67;1.00;;;;;;;20.20;40.79;99601.59;5004530;28;20029;-66
2021/12/08 10:13:56;;;;;;;1.95;1.20;;;;;;;20.47;40.80;99618.19;5034869;28;20099;-67
2021/12/08 10:16:24;;;;;;;2.28;1.25;;;;;;;20.49;40.72;99615.31;4988823;28;20029;-68
2021/12/08 10:18:51;;;;;;;3.10;1.50;;;;;;;20.54;41.19;99607.53;5003700;28;20127;-66
2021/12/08 10:21:19;;;;;;;1.63;1.33;;;;;;;20.60;40.95;99608.50;5009673;28;20116;-66
2021/12/08 10:23:47;;;;;;;2.17;1.23;;;;;;;20.66;41.33;99582.03;5008450;28;20037;-67
2021/12/08 10:26:21;;;;;;;1.55;1.20;;;;;;;20.77;41.26;99591.09;5036088;28;20095;-69
2021/12/08 10:28:51;;;;;;;1.50;1.38;;;;;;;20.77;41.13;99594.56;5023623;28;20790;-68
2021/12/08 10:31:27;;;;;;;1.88;1.00;;;;;;;20.89;40.81;99591.22;5038928;28;20037;-67
2021/12/08 10:34:09;;;;;;;2.05;1.00;;;;;;;20.92;40.70;99590.78;5013675;28;20112;-66
2021/12/08 10:36:58;;;;;;;2.42;1.20;;;;;;;20.96;40.67;99590.13;5007035;28;20041;-66
2021/12/08 10:39:27;;;;;;;4.13;1.53;;;;;;;20.96;40.74;99589.31;5009422;28;20033;-65
2021/12/08 10:42:01;;;;;;;2.75;1.23;;;;;;;20.97;40.88;99562.63;5024756;28;20348;-67
2021/12/08 10:44:57;;;;;;;3.05;1.20;;;;;;;20.94;40.68;99557.78;5005806;28;20033;-64
2021/12/08 10:47:24;;;;;;;1.70;1.20;;;;;;;20.99;40.90;99551.81;5024602;28;20469;-65
2021/12/08 10:55:20;;;;;;;2.33;1.13;;;;;;;21.04;41.09;99557.28;4985956;28;20041;-66
2021/12/08 10:57:50;;;;;;;2.63;1.10;;;;;;;21.00;40.91;99543.66;5053231;28;20051;-66
2021/12/08 11:00:18;;;;;;;2.65;1.23;;;;;;;21.00;40.95;99546.31;4986212;28;20075;-64
2021/12/08 11:02:53;;;;;;;2.28;1.10;;;;;;;21.05;41.07;99553.63;5041197;28;20205;-65
2021/12/08 11:05:25;;;;;;;1.20;1.05;;;;;;;21.07;41.05;99559.50;4984351;28;20033;-67
2021/12/08 11:08:16;;;;;;;2.92;1.10;;;;;;;21.02;40.98;99557.53;5039670;28;20025;-68
2021/12/08 11:10:53;;;;;;;3.08;1.08;;;;;;;21.06;41.15;99574.56;4965866;28;20888;-67
2021/12/08 11:13:27;;;;;;;1.67;0.95;;;;;;;21.04;41.13;99567.88;5036862;28;20026;-69
2021/12/08 11:16:16;;;;;;;3.03;1.65;;;;;;;20.95;41.08;99583.22;4984092;28;21811;-68
2021/12/08 11:18:47;;;;;;;3.75;1.52;;;;;;;20.88;40.84;99587.75;5040062;28;20045;-68
2021/12/08 11:21:24;;;;;;;1.73;1.20;;;;;;;20.88;40.84;99595.69;4976366;28;20450;-68
2021/12/08 11:23:52;;;;;;;2.13;1.20;;;;;;;20.82;40.85;99588.59;5030649;28;20065;-71
2021/12/08 11:26:27;;;;;;;2.20;1.13;;;;;;;20.81;40.66;99606.31;5016014;28;20041;-68
2021/12/08 11:29:09;;;;;;;3.05;1.40;;;;;;;20.75;40.77;99611.66;5008017;28;20039;-68
2021/12/08 11:31:37;;;;;;;2.85;1.13;;;;;;;20.76;40.70;99622.03;5009934;28;20526;-69
2021/12/08 11:34:12;;;;;;;3.10;1.50;;;;;;;20.72;40.63;99620.84;5011890;28;20083;-69
2021/12/08 11:36:40;;;;;;;2.05;1.30;;;;;;;20.70;40.63;99614.16;5010995;28;21320;-69
2021/12/08 11:39:10;;;;;;;2.20;1.30;;;;;;;20.67;40.55;99607.47;5011281;28;20095;-68
2021/12/08 11:41:41;;;;;;;3.42;1.65;;;;;;;20.63;40.71;99616.03;5003171;28;20071;-69
2021/12/08 11:44:14;;;;;;;2.95;1.73;;;;;;;20.60;40.72;99619.91;5039181;28;21708;-68
2021/12/08 11:46:45;;;;;;;2.40;1.30;;;;;;;20.60;40.64;99619.09;4985703;28;20142;-68
2021/12/08 11:49:11;;;;;;;3.88;1.52;;;;;;;20.52;40.67;99623.63;5037684;28;20127;-69
2021/12/08 11:51:42;;;;;;;3.33;1.30;;;;;;;20.52;40.71;99628.91;4986688;28;20285;-68
2021/12/08 11:54:41;;;;;;;3.45;1.67;;;;;;;20.50;40.73;99632.81;5057522;28;20497;-69
2021/12/08 11:57:12;;;;;;;3.65;1.58;;;;;;;20.47;40.68;99641.97;5008443;28;20129;-69
2021/12/08 11:59:59;;;;;;;3.00;1.50;;;;;;;20.44;40.70;99644.22;5038395;28;20041;-68
2021/12/08 12:02:29;;;;;;;2.72;1.52;;;;;;;20.43;40.68;99653.16;4986431;28;20084;-68
2021/12/08 12:04:56;;;;;;;2.60;1.45;;;;;;;20.39;40.92;99650.09;5036158;28;20049;-69
2021/12/08 12:07:22;;;;;;;1.80;1.50;;;;;;;20.33;40.80;99653.59;4982035;28;20422;-69
2021/12/08 12:09:49;;;;;;;1.65;1.30;;;;;;;20.29;40.86;99657.69;5038055;28;20030;-69
2021/12/08 12:12:15;;;;;;;2.88;1.60;;;;;;;20.29;41.02;99654.22;4971650;28;20098;-65
2021/12/08 12:14:41;;;;;;;3.55;1.83;;;;;;;20.26;41.03;99658.09;5038852;28;20060;-66
2021/12/08 12:17:07;;;;;;;3.75;1.35;;;;;;;20.22;41.12;99662.19;5015065;28;20052;-65
2021/12/08 12:19:41;;;;;;;2.88;1.30;;;;;;;20.20;41.07;99665.03;5034980;28;20250;-65
2021/12/08 12:22:27;;;;;;;2.65;1.42;;;;;;;20.17;41.17;99683.16;5012152;28;20061;-66
2021/12/08 12:25:01;;;;;;;4.90;1.70;;;;;;;20.17;41.07;99680.53;5032605;28;20430;-66
2021/12/08 12:27:43;;;;;;;2.03;1.50;;;;;;;20.14;41.07;99684.41;4993777;28;20033;-65
2021/12/08 12:30:39;;;;;;;2.35;1.38;;;;;;;20.17;41.14;99686.63;5032252;28;20111;-65
2021/12/08 12:33:16;;;;;;;1.67;1.30;;;;;;;20.19;41.12;99686.41;5003325;28;20038;-65
2021/12/08 12:35:51;;;;;;;2.83;1.35;;;;;;;20.18;41.08;99685.59;5031164;28;20059;-64
2021/12/08 12:38:17;;;;;;;2.40;1.55;;;;;;;20.24;41.03;99681.28;5006407;28;20041;-65